Time;durP1;ratioP1;P1;durP2;ratioP2;P2;SDS_P1;SDS_P2;PMS_P1;PMS_P2;Temp;Humidity;BMP_temperature;BMP_pressure;BME280_temperature;BME280_humidity;BME280_pressure;Samples;Min_cycle;Max_cycle;Signal;HPM_P1;HPM_P2
2021/11/10 00:00:51;;;;;;;5.60;3.10;;;;;;;3.15;58.81;102602.80;117438;1183;23465;-61
2021/11/10 00:03:20;;;;;;;5.00;3.10;;;;;;;3.13;58.56;102602.91;117368;1185;21884;-60
2021/11/10 00:05:48;;;;;;;5.60;3.30;;;;;;;3.12;58.62;102603.39;117446;1185;23439;-58
2021/11/10 00:08:16;;;;;;;6.50;3.70;;;;;;;3.10;58.61;102604.81;117517;1176;21851;-60
2021/11/10 00:10:44;;;;;;;6.00;3.50;;;;;;;3.04;58.54;102608.51;117505;1183;21851;-58
2021/11/10 00:13:18;;;;;;;7.00;3.90;;;;;;;3.00;58.40;102615.02;117456;1186;21860;-58
2021/11/10 00:15:48;;;;;;;7.60;3.60;;;;;;;2.95;58.51;102619.65;117476;1182;23455;-60
2021/11/10 00:18:16;;;;;;;7.50;4.00;;;;;;;2.90;58.56;102622.66;117509;1186;21854;-58
2021/11/10 00:20:47;;;;;;;6.30;3.90;;;;;;;2.88;58.53;102621.86;117506;1184;21855;-58
2021/11/10 00:23:15;;;;;;;6.90;3.80;;;;;;;2.85;58.42;102622.02;117612;1183;22087;-58
2021/11/10 00:25:44;;;;;;;8.10;4.30;;;;;;;2.80;58.46;102625.92;117425;1183;24142;-58
2021/11/10 00:28:12;;;;;;;9.60;4.10;;;;;;;2.71;58.60;102624.39;117413;1185;23446;-58
2021/11/10 00:30:41;;;;;;;5.70;3.70;;;;;;;2.66;58.51;102620.98;117417;1183;23451;-60
2021/11/10 00:33:09;;;;;;;5.70;4.00;;;;;;;2.65;58.69;102613.81;117467;1182;23452;-60
2021/11/10 00:35:37;;;;;;;5.90;3.40;;;;;;;2.65;58.73;102612.11;117362;1183;23544;-58
2021/11/10 00:38:06;;;;;;;6.90;3.60;;;;;;;2.67;58.82;102620.02;117411;1182;23439;-61
2021/11/10 00:40:34;;;;;;;6.70;3.80;;;;;;;2.68;58.85;102619.34;117311;1182;23538;-58
2021/11/10 00:43:02;;;;;;;7.30;4.40;;;;;;;2.68;58.62;102622.14;117360;1180;23449;-58
2021/11/10 00:45:31;;;;;;;7.30;3.70;;;;;;;2.64;58.78;102626.41;117538;1184;23442;-60
2021/11/10 00:47:59;;;;;;;6.30;3.80;;;;;;;2.58;58.61;102626.64;117542;1184;21871;-58
2021/11/10 00:50:28;;;;;;;6.30;3.60;;;;;;;2.50;58.42;102629.77;117521;1183;24156;-58
2021/11/10 00:52:56;;;;;;;6.00;3.30;;;;;;;2.44;58.35;102630.81;117535;1182;23439;-61
2021/11/10 00:55:25;;;;;;;7.20;4.40;;;;;;;2.39;58.65;102631.96;117573;1184;22002;-58
2021/11/10 00:57:53;;;;;;;7.10;4.30;;;;;;;2.30;58.50;102633.14;117566;1185;23442;-61
2021/11/10 01:00:24;;;;;;;7.30;3.90;;;;;;;2.20;58.61;102636.94;117517;1185;21853;-57
2021/11/10 01:02:52;;;;;;;9.10;4.20;;;;;;;2.19;58.58;102637.07;117627;1186;21862;-60
2021/11/10 01:05:20;;;;;;;7.90;3.90;;;;;;;2.20;58.39;102638.48;117317;1183;23572;-59
2021/11/10 01:07:51;;;;;;;7.60;4.20;;;;;;;2.15;58.22;102644.09;117348;1185;21853;-61
2021/11/10 01:10:19;;;;;;;7.20;4.10;;;;;;;2.12;58.31;102649.78;117415;1183;23442;-60
2021/11/10 01:13:07;;;;;;;12.60;3.90;;;;;;;2.13;58.22;102661.11;117374;1184;23685;-58
2021/11/10 01:15:39;;;;;;;7.10;4.00;;;;;;;2.09;58.36;102666.25;117456;1184;23448;-58
2021/11/10 01:18:07;;;;;;;8.80;4.60;;;;;;;2.07;58.31;102670.66;117409;1185;22898;-58
2021/11/10 01:20:35;;;;;;;6.80;4.60;;;;;;;2.08;58.39;102675.19;117407;1182;22915;-60
2021/11/10 01:23:04;;;;;;;7.00;4.20;;;;;;;2.08;58.45;102681.10;117567;1184;21857;-58
2021/11/10 01:25:35;;;;;;;6.00;3.70;;;;;;;2.09;58.44;102682.02;117520;1186;21861;-60
2021/11/10 01:28:05;;;;;;;7.70;4.80;;;;;;;2.11;58.50;102681.27;117543;1185;21865;-61
2021/11/10 01:30:33;;;;;;;6.20;4.20;;;;;;;2.15;58.45;102683.71;117513;1182;21863;-58
2021/11/10 01:33:02;;;;;;;7.40;4.30;;;;;;;2.15;58.31;102687.36;117549;1183;22700;-57
2021/11/10 01:35:30;;;;;;;8.00;4.20;;;;;;;2.17;58.50;102689.38;117537;1183;21855;-60
2021/11/10 01:37:58;;;;;;;8.20;4.30;;;;;;;2.20;58.44;102689.96;117527;1182;22508;-60
2021/11/10 01:40:28;;;;;;;9.00;4.50;;;;;;;2.23;58.66;102695.11;117497;1183;22911;-57
2021/11/10 01:42:56;;;;;;;7.80;4.70;;;;;;;2.24;58.53;102693.62;117594;1184;21854;-58
2021/11/10 01:45:24;;;;;;;6.60;4.00;;;;;;;2.25;58.34;102695.20;117451;1186;24211;-60
2021/11/10 01:47:52;;;;;;;7.10;4.50;;;;;;;2.23;58.50;102690.80;117474;1183;21855;-61
2021/11/10 01:50:21;;;;;;;7.80;4.60;;;;;;;2.21;58.30;102693.14;117493;1183;23506;-60
2021/11/10 01:52:49;;;;;;;9.30;4.90;;;;;;;2.15;58.38;102693.80;117512;1182;21854;-58
2021/11/10 01:55:18;;;;;;;7.70;4.20;;;;;;;2.11;58.25;102699.43;117551;1182;23446;-61
2021/11/10 01:57:47;;;;;;;7.40;4.50;;;;;;;2.08;58.32;102699.30;117403;1185;23445;-58
2021/11/10 02:00:24;;;;;;;7.10;3.60;;;;;;;2.07;58.40;102702.83;117530;1184;21892;-62
2021/11/10 02:02:53;;;;;;;7.20;4.60;;;;;;;2.04;58.46;102707.67;117437;1182;23461;-61
2021/11/10 02:05:22;;;;;;;8.20;4.50;;;;;;;2.01;58.37;102708.35;117574;1182;23448;-61
2021/11/10 02:07:50;;;;;;;8.60;5.00;;;;;;;1.98;58.40;102710.45;117517;1185;23452;-61
2021/11/10 02:10:20;;;;;;;11.40;5.00;;;;;;;1.96;58.39;102711.35;117516;1183;23458;-60
2021/11/10 02:12:49;;;;;;;6.70;4.10;;;;;;;1.96;58.38;102716.05;117545;1184;21859;-61
2021/11/10 02:15:17;;;;;;;8.50;4.60;;;;;;;1.95;58.53;102718.42;117562;1186;21873;-61
2021/11/10 02:18:02;;;;;;;9.80;4.80;;;;;;;1.94;58.36;102721.45;117414;1182;24450;-60
2021/11/10 02:20:35;;;;;;;8.60;4.90;;;;;;;1.92;58.39;102725.86;117433;1182;21890;-60
2021/11/10 02:23:03;;;;;;;7.20;4.40;;;;;;;1.92;58.33;102724.46;117453;1182;22609;-59
2021/11/10 02:25:34;;;;;;;6.80;4.10;;;;;;;1.92;58.20;102728.13;117411;1184;21891;-60
2021/11/10 02:28:03;;;;;;;8.90;4.90;;;;;;;1.91;58.35;102732.57;117431;1186;21911;-59
2021/11/10 02:30:31;;;;;;;8.20;4.90;;;;;;;1.88;58.20;102736.71;117453;1180;21859;-58
2021/11/10 02:33:01;;;;;;;6.90;4.60;;;;;;;1.88;58.40;102738.79;117472;1186;24254;-58
2021/11/10 02:35:30;;;;;;;6.60;4.50;;;;;;;1.87;58.16;102739.77;117423;1183;23465;-61
2021/11/10 02:38:01;;;;;;;7.70;5.20;;;;;;;1.84;58.08;102742.83;117408;1176;21876;-58
2021/11/10 02:40:29;;;;;;;11.50;5.10;;;;;;;1.73;58.10;102740.60;117346;1182;23407;-58
2021/11/10 02:42:59;;;;;;;8.50;5.00;;;;;;;1.68;58.06;102740.33;117401;1176;21850;-58
2021/11/10 02:45:29;;;;;;;7.60;5.00;;;;;;;1.69;58.32;102742.09;117414;1182;23465;-60
2021/11/10 02:47:58;;;;;;;8.20;5.10;;;;;;;1.72;58.42;102743.48;117295;1185;21876;-58
2021/11/10 02:50:30;;;;;;;13.20;4.70;;;;;;;1.76;58.34;102744.12;117401;1185;21864;-61
2021/11/10 02:53:00;;;;;;;10.30;4.70;;;;;;;1.80;58.35;102745.04;117388;1183;23442;-58
2021/11/10 02:55:28;;;;;;;8.10;5.20;;;;;;;1.85;58.36;102748.80;117356;1183;21856;-60
2021/11/10 02:57:57;;;;;;;8.50;5.00;;;;;;;1.86;58.16;102745.41;117408;1182;22885;-60
2021/11/10 03:00:26;;;;;;;9.50;5.40;;;;;;;1.86;58.17;102744.35;117493;1184;21858;-58
2021/11/10 03:02:55;;;;;;;9.10;5.20;;;;;;;1.83;58.34;102745.58;117566;1182;24158;-59
2021/11/10 03:05:23;;;;;;;8.80;5.20;;;;;;;1.78;57.96;102743.67;117538;1182;22516;-61
2021/11/10 03:07:52;;;;;;;8.30;4.80;;;;;;;1.78;58.21;102749.09;117554;1182;21910;-61
2021/11/10 03:10:20;;;;;;;9.10;5.70;;;;;;;1.74;58.29;102750.40;117427;1183;23468;-58
2021/11/10 03:13:01;;;;;;;7.90;5.00;;;;;;;1.72;58.24;102757.35;117504;1182;23544;-61
2021/11/10 03:15:29;;;;;;;8.30;5.20;;;;;;;1.71;58.30;102760.60;117505;1182;23465;-61
2021/11/10 03:17:58;;;;;;;9.10;5.30;;;;;;;1.71;58.18;102768.71;117416;1183;21864;-58
2021/11/10 03:20:44;;;;;;;6.90;4.70;;;;;;;1.65;58.23;102766.98;117483;1183;21850;-58
2021/11/10 03:23:12;;;;;;;7.30;4.60;;;;;;;1.61;58.32;102762.06;117542;1183;23461;-61
2021/11/10 03:25:40;;;;;;;7.20;4.90;;;;;;;1.65;58.14;102761.23;117454;1185;23468;-58
2021/11/10 03:28:09;;;;;;;7.30;5.30;;;;;;;1.67;58.13;102763.41;117477;1186;21854;-58
2021/11/10 03:30:37;;;;;;;8.80;4.90;;;;;;;1.67;58.28;102769.36;117511;1182;22447;-60
2021/11/10 03:33:05;;;;;;;8.50;5.20;;;;;;;1.68;57.98;102768.17;117568;1184;23468;-59
2021/11/10 03:35:34;;;;;;;7.30;4.90;;;;;;;1.67;58.26;102770.02;117508;1185;21860;-60
2021/11/10 03:38:02;;;;;;;6.80;4.70;;;;;;;1.73;58.14;102772.30;117632;1182;24162;-57
2021/11/10 03:40:31;;;;;;;9.10;5.20;;;;;;;1.77;58.33;102766.14;117518;1182;23002;-60
2021/11/10 03:42:59;;;;;;;8.40;5.70;;;;;;;1.82;58.31;102765.41;117510;1182;21852;-62
2021/11/10 03:45:27;;;;;;;9.80;5.20;;;;;;;1.86;58.53;102761.17;117377;1185;21931;-59
2021/11/10 03:47:55;;;;;;;10.80;6.00;;;;;;;1.91;58.61;102763.70;117512;1184;23442;-58
2021/11/10 03:50:26;;;;;;;8.70;5.40;;;;;;;1.99;58.78;102767.83;117283;1185;22969;-60
2021/11/10 03:52:58;;;;;;;8.20;5.30;;;;;;;2.07;58.67;102774.89;117489;1184;23456;-61
2021/11/10 03:55:34;;;;;;;7.60;5.40;;;;;;;2.14;58.60;102784.17;117546;1185;23438;-58
2021/11/10 03:58:04;;;;;;;7.60;5.30;;;;;;;2.21;58.73;102784.07;117505;1182;21858;-61
2021/11/10 04:00:33;;;;;;;;;;;;;;;2.27;58.59;102784.73;117413;1176;23059;-58
2021/11/10 04:03:02;;;;;;;8.50;5.40;;;;;;;2.27;58.27;102785.30;117356;1185;21851;-61
2021/11/10 04:05:30;;;;;;;11.50;7.20;;;;;;;2.29;58.56;102785.77;117448;1185;21915;-61
2021/11/10 04:08:00;;;;;;;9.30;5.70;;;;;;;2.33;58.60;102779.72;117392;1183;23472;-58
2021/11/10 04:10:29;;;;;;;10.30;6.40;;;;;;;2.33;58.71;102780.61;117409;1185;23461;-58
2021/11/10 04:12:58;;;;;;;10.80;5.70;;;;;;;2.33;58.62;102775.42;117446;1186;23456;-61
2021/11/10 04:15:28;;;;;;;9.90;6.40;;;;;;;2.38;58.72;102778.52;117380;1183;21855;-58
2021/11/10 04:18:11;;;;;;;8.60;5.80;;;;;;;2.45;58.84;102776.47;117493;1185;23458;-60
2021/11/10 04:21:04;;;;;;;8.30;6.70;;;;;;;2.51;58.62;102777.19;117369;1184;21866;-60
2021/11/10 04:23:33;;;;;;;9.80;6.70;;;;;;;2.58;58.77;102776.52;117405;1186;21849;-61
2021/11/10 04:26:04;;;;;;;12.20;6.20;;;;;;;2.62;58.84;102774.91;117433;1182;21857;-61
2021/11/10 04:28:32;;;;;;;33.50;18.70;;;;;;;2.66;58.92;102776.64;117366;1185;23468;-61
2021/11/10 04:31:00;;;;;;;13.60;11.00;;;;;;;2.70;58.84;102777.08;117372;1185;21845;-58
2021/11/10 04:33:28;;;;;;;13.70;9.10;;;;;;;2.78;58.97;102781.52;117389;1183;22913;-61
2021/11/10 04:35:56;;;;;;;10.80;7.00;;;;;;;2.90;59.10;102782.70;117418;1183;22808;-57
2021/11/10 04:38:25;;;;;;;10.10;7.10;;;;;;;2.96;59.11;102781.89;117494;1185;22986;-60
2021/11/10 04:40:53;;;;;;;13.10;7.30;;;;;;;3.03;58.96;102775.45;117386;1185;24163;-58
2021/11/10 04:43:21;;;;;;;10.90;6.80;;;;;;;3.10;58.76;102777.80;117431;1184;21857;-58
2021/11/10 04:45:58;;;;;;;14.50;7.90;;;;;;;3.15;58.86;102779.28;117355;1185;24705;-58
2021/11/10 04:48:26;;;;;;;14.20;7.50;;;;;;;3.23;58.80;102779.54;117637;1182;23442;-59
2021/11/10 04:50:56;;;;;;;18.60;8.70;;;;;;;3.31;59.15;102782.43;119561;1184;22420;-60
2021/11/10 04:53:24;;;;;;;14.30;8.70;;;;;;;3.36;59.07;102781.34;118871;1183;22619;-62
2021/11/10 04:55:53;;;;;;;14.00;7.50;;;;;;;3.38;59.10;102780.92;117539;1186;21937;-59
2021/11/10 04:58:21;;;;;;;10.00;6.50;;;;;;;3.40;59.13;102780.15;117518;1183;23544;-60
2021/11/10 05:00:49;;;;;;;9.40;7.10;;;;;;;3.38;58.78;102783.89;117365;1183;23442;-59
2021/11/10 05:03:18;;;;;;;26.30;8.80;;;;;;;3.36;58.81;102789.47;117426;1183;22954;-60
2021/11/10 05:05:47;;;;;;;14.40;6.80;;;;;;;3.35;58.89;102791.70;117529;1185;23429;-60
2021/11/10 05:08:15;;;;;;;17.80;6.40;;;;;;;3.38;58.91;102799.30;117337;1186;23564;-60
2021/11/10 05:10:43;;;;;;;10.40;6.50;;;;;;;3.39;58.93;102809.93;117573;1182;24179;-61
2021/11/10 05:13:12;;;;;;;9.00;6.00;;;;;;;3.37;58.90;102812.13;117659;1183;23435;-60
2021/11/10 05:15:57;;;;;;;14.90;6.50;;;;;;;3.41;58.75;102808.70;117471;1184;21854;-60
2021/11/10 05:18:25;;;;;;;22.80;8.60;;;;;;;3.46;58.84;102816.23;117462;1180;22955;-60
2021/11/10 05:20:53;;;;;;;9.40;7.00;;;;;;;3.49;58.92;102818.14;117482;1182;21867;-60
2021/11/10 05:23:22;;;;;;;8.70;6.70;;;;;;;3.53;58.92;102813.88;117495;1182;22620;-61
2021/11/10 05:25:50;;;;;;;11.60;6.60;;;;;;;3.52;58.81;102818.51;117575;1182;22989;-60
2021/11/10 05:28:18;;;;;;;11.50;6.70;;;;;;;3.54;58.78;102819.79;117573;1185;23446;-61
2021/11/10 05:30:47;;;;;;;11.10;6.20;;;;;;;3.62;58.98;102817.12;117526;1184;22837;-67
2021/11/10 05:33:15;;;;;;;15.30;8.30;;;;;;;3.81;59.15;102823.75;117722;1182;22909;-67
2021/11/10 05:35:44;;;;;;;8.50;6.60;;;;;;;3.98;59.26;102822.77;117524;1185;22144;-62
2021/11/10 05:38:12;;;;;;;9.30;6.20;;;;;;;4.02;59.09;102826.95;117497;1176;21895;-59
2021/11/10 05:40:40;;;;;;;9.00;6.30;;;;;;;3.87;58.36;102840.05;117494;1182;21864;-61
2021/11/10 05:43:08;;;;;;;11.60;7.00;;;;;;;3.67;58.39;102849.18;117513;1182;22911;-58
2021/11/10 05:45:37;;;;;;;8.00;6.10;;;;;;;3.50;58.50;102844.77;117543;1184;24149;-59
2021/11/10 05:48:05;;;;;;;7.40;5.60;;;;;;;3.36;58.29;102846.05;117450;1185;23439;-58
2021/11/10 05:50:33;;;;;;;7.60;5.60;;;;;;;3.21;58.36;102847.30;117521;1183;23465;-58
2021/11/10 05:53:02;;;;;;;8.00;5.40;;;;;;;3.10;58.39;102848.20;117593;1185;23433;-59
2021/11/10 05:55:30;;;;;;;8.70;6.00;;;;;;;3.06;58.62;102842.96;117422;1186;23469;-58
2021/11/10 05:57:58;;;;;;;9.10;6.00;;;;;;;3.00;58.31;102841.75;117432;1182;23451;-62
2021/11/10 06:00:27;;;;;;;9.80;5.10;;;;;;;2.95;58.54;102845.63;117441;1181;22893;-60
2021/11/10 06:02:56;;;;;;;9.80;5.60;;;;;;;2.92;58.57;102844.73;117358;1185;21896;-59
2021/11/10 06:05:25;;;;;;;9.00;5.30;;;;;;;2.91;58.71;102846.46;117381;1185;21859;-59
2021/11/10 06:07:53;;;;;;;11.40;4.80;;;;;;;2.93;58.46;102851.05;117479;1182;23544;-59
2021/11/10 06:10:21;;;;;;;8.60;5.70;;;;;;;2.96;58.84;102854.70;117404;1183;22833;-61
2021/11/10 06:12:51;;;;;;;9.60;5.00;;;;;;;2.98;58.62;102851.02;117526;1186;23442;-61
2021/11/10 06:15:20;;;;;;;6.20;4.80;;;;;;;3.02;58.83;102855.71;117438;1180;21932;-62
2021/11/10 06:17:48;;;;;;;16.00;6.50;;;;;;;3.05;58.77;102859.92;117412;1184;21854;-62
2021/11/10 06:20:16;;;;;;;8.20;5.50;;;;;;;3.22;59.23;102865.55;117386;1176;23439;-63
2021/11/10 06:22:45;;;;;;;9.50;5.80;;;;;;;3.48;59.34;102859.79;117379;1182;22922;-61
2021/11/10 06:25:13;;;;;;;8.50;5.50;;;;;;;3.59;59.22;102863.68;117421;1186;21959;-61
2021/11/10 06:27:42;;;;;;;8.00;5.30;;;;;;;3.64;59.00;102873.52;117404;1183;24152;-62
2021/11/10 06:30:11;;;;;;;8.80;4.70;;;;;;;3.65;58.97;102877.88;117427;1182;21862;-62
2021/11/10 06:32:39;;;;;;;13.00;5.50;;;;;;;3.63;58.88;102890.27;117475;1184;23464;-62
2021/11/10 06:35:07;;;;;;;8.10;5.70;;;;;;;3.63;59.02;102900.73;117413;1185;23465;-62
2021/11/10 06:37:35;;;;;;;7.80;5.60;;;;;;;3.65;58.85;102906.05;117406;1185;22928;-62
2021/11/10 06:40:04;;;;;;;7.50;5.10;;;;;;;3.68;58.98;102907.09;117440;1182;24157;-60
2021/11/10 06:42:34;;;;;;;7.40;4.80;;;;;;;3.70;58.83;102914.50;117412;1183;23465;-62
2021/11/10 06:45:03;;;;;;;9.00;4.90;;;;;;;3.75;58.96;102920.48;117415;1183;21858;-60
2021/11/10 06:47:32;;;;;;;9.30;5.50;;;;;;;3.78;58.91;102921.83;117313;1185;23485;-60
2021/11/10 06:50:02;;;;;;;6.80;5.20;;;;;;;3.82;59.03;102918.98;117359;1185;21848;-60
2021/11/10 06:52:30;;;;;;;5.60;4.40;;;;;;;3.87;58.71;102913.69;117539;1185;21864;-63
2021/11/10 06:54:58;;;;;;;8.00;5.10;;;;;;;3.94;58.99;102911.31;117479;1184;21862;-62
2021/11/10 06:57:27;;;;;;;8.00;5.20;;;;;;;4.00;58.92;102911.10;117404;1185;21874;-63
2021/11/10 06:59:55;;;;;;;10.90;5.50;;;;;;;4.06;59.08;102917.30;117493;1182;22897;-61
2021/11/10 07:02:23;;;;;;;7.00;4.90;;;;;;;4.16;59.18;102917.16;117387;1188;21845;-63
2021/11/10 07:04:52;;;;;;;8.80;5.30;;;;;;;4.26;59.35;102913.00;117539;1183;22720;-63
2021/11/10 07:07:20;;;;;;;7.00;4.70;;;;;;;4.36;59.39;102911.84;117478;1179;24694;-59
2021/11/10 07:09:49;;;;;;;10.10;6.00;;;;;;;4.54;59.62;102910.67;117537;1184;24186;-58
2021/11/10 07:12:17;;;;;;;7.40;5.30;;;;;;;4.70;59.33;102905.47;117379;1183;22918;-58
2021/11/10 07:14:45;;;;;;;15.80;10.50;;;;;;;4.78;59.48;102902.19;117377;1182;23085;-58
2021/11/10 07:17:13;;;;;;;54.20;40.60;;;;;;;4.86;59.39;102900.89;117426;1185;22915;-58
2021/11/10 07:19:41;;;;;;;30.70;20.40;;;;;;;4.95;59.32;102891.42;117324;1185;22651;-58
2021/11/10 07:22:10;;;;;;;20.10;14.10;;;;;;;5.05;59.27;102889.31;117382;1182;21863;-58
2021/11/10 07:24:39;;;;;;;25.80;14.70;;;;;;;5.14;59.41;102892.37;117431;1182;22629;-61
2021/11/10 07:27:07;;;;;;;21.90;13.80;;;;;;;5.17;59.41;102890.80;117357;1185;23472;-63
2021/11/10 07:29:36;;;;;;;12.80;8.90;;;;;;;5.24;59.38;102889.39;117416;1182;24129;-60
2021/11/10 07:32:05;;;;;;;10.30;8.40;;;;;;;5.41;59.78;102884.67;117517;1182;24163;-59
2021/11/10 07:34:34;;;;;;;10.50;8.40;;;;;;;5.61;59.79;102877.27;117560;1182;21986;-60
2021/11/10 07:37:05;;;;;;;8.50;6.80;;;;;;;5.73;59.90;102870.68;117486;1183;23465;-60
2021/11/10 07:39:34;;;;;;;8.60;6.30;;;;;;;5.87;59.74;102869.78;117507;1185;21898;-61
2021/11/10 07:42:03;;;;;;;8.10;5.80;;;;;;;5.99;59.50;102868.59;117416;1183;22843;-61
2021/11/10 07:44:32;;;;;;;8.10;5.80;;;;;;;6.14;59.83;102868.79;117373;1185;24166;-64
2021/11/10 07:47:39;;;;;;;8.70;6.00;;;;;;;6.29;59.71;102870.84;117431;1186;23548;-61
2021/11/10 07:49:55;;;;;;;7.10;5.80;;;;;;;6.41;59.77;102863.05;117399;1185;21858;-61
2021/11/10 07:52:23;;;;;;;10.60;6.40;;;;;;;6.61;60.03;102857.80;117628;1184;23036;-61
2021/11/10 07:54:57;;;;;;;7.30;5.60;;;;;;;6.87;60.16;102853.49;117512;1179;23590;-61
2021/11/10 07:57:26;;;;;;;7.50;5.70;;;;;;;7.11;60.26;102844.36;117346;1185;22037;-61
2021/11/10 07:59:54;;;;;;;8.70;5.90;;;;;;;7.30;60.37;102842.52;117490;1186;23578;-58
2021/11/10 08:02:22;;;;;;;11.70;6.80;;;;;;;7.49;60.07;102853.61;117560;1183;23438;-59
2021/11/10 08:04:52;;;;;;;7.80;5.80;;;;;;;7.62;60.14;102860.03;117549;1182;23464;-61
2021/11/10 08:07:26;;;;;;;7.20;4.90;;;;;;;7.73;60.10;102871.48;117438;1179;23465;-61
2021/11/10 08:10:12;;;;;;;7.30;5.60;;;;;;;7.94;60.11;102863.92;117510;1179;23471;-61
2021/11/10 08:12:41;;;;;;;9.10;5.40;;;;;;;8.19;60.29;102858.91;117441;1184;23442;-61
2021/11/10 08:15:10;;;;;;;7.00;5.20;;;;;;;8.41;60.31;102862.14;117534;1186;21859;-61
2021/11/10 08:17:39;;;;;;;7.70;4.90;;;;;;;8.56;60.31;102863.41;117521;1182;22958;-58
2021/11/10 08:20:16;;;;;;;5.60;4.60;;;;;;;8.75;60.37;102858.33;117461;1186;23533;-59
2021/11/10 08:22:45;;;;;;;5.70;3.60;;;;;;;8.88;60.25;102861.20;117348;1184;21861;-59
2021/11/10 08:25:15;;;;;;;8.40;5.80;;;;;;;8.98;60.19;102866.83;117482;1176;21846;-58
2021/11/10 08:27:44;;;;;;;;;;;;;;;9.01;59.93;102872.67;117528;1183;23523;-61
2021/11/10 08:30:15;;;;;;;;;;;;;;;8.92;59.77;102866.98;117511;1176;21873;-61
2021/11/10 08:32:46;;;;;;;;;;;;;;;8.94;59.86;102865.43;117391;1182;23514;-58
2021/11/10 08:35:14;;;;;;;;;;;;;;;9.04;60.24;102862.80;117456;1179;22591;-64
2021/11/10 08:37:44;;;;;;;;;;;;;;;9.23;60.42;102865.69;117435;1184;23430;-61
2021/11/10 08:40:12;;;;;;;;;;;;;;;9.45;60.49;102867.30;117468;1185;21829;-64
2021/11/10 08:42:40;;;;;;;;;;;;;;;9.58;60.26;102864.55;117396;1182;21854;-64
2021/11/10 08:45:14;;;;;;;;;;;;;;;9.61;60.14;102865.88;117382;1184;23449;-61
2021/11/10 08:47:42;;;;;;;;;;;;;;;9.61;60.05;102867.80;117464;1182;23550;-60
2021/11/10 08:50:11;;;;;;;;;;;;;;;9.77;60.40;102864.25;117434;1182;23454;-61
2021/11/10 08:52:39;;;;;;;;;;;;;;;9.99;60.57;102860.70;117513;1183;23528;-64
2021/11/10 08:55:08;;;;;;;;;;;;;;;10.27;60.62;102863.98;117565;1185;21958;-64
2021/11/10 08:57:37;;;;;;;;;;;;;;;10.51;60.67;102862.79;117507;1182;22941;-64
2021/11/10 09:00:06;;;;;;;;;;;;;;;10.67;60.44;102861.09;117449;1186;23429;-61
2021/11/10 09:02:35;;;;;;;;;;;;;;;10.85;60.43;102860.85;117463;1185;23459;-63
2021/11/10 09:05:04;;;;;;;;;;;;;;;11.01;60.60;102855.30;117452;1186;23638;-61
2021/11/10 09:07:33;;;;;;;;;;;;;;;11.10;60.35;102857.83;117488;1185;21870;-64
2021/11/10 09:10:21;;;;;;;;;;;;;;;11.12;60.09;102858.39;117514;1186;21838;-61
2021/11/10 09:12:50;;;;;;;;;;;;;;;11.21;60.21;102860.90;117422;1185;24146;-60
2021/11/10 09:15:19;;;;;;;;;;;;;;;11.39;60.52;102859.92;117516;1184;23426;-61
2021/11/10 09:17:47;;;;;;;;;;;;;;;11.54;60.54;102853.06;117453;1188;21845;-61
2021/11/10 09:20:20;;;;;;;;;;;;;;;11.73;60.45;102852.96;117583;1185;22628;-64
2021/11/10 09:22:54;;;;;;;;;;;;;;;11.97;60.69;102846.29;117566;1182;24119;-61
2021/11/10 09:25:23;;;;;;;;;;;;;;;12.19;60.65;102838.66;117535;1183;23487;-63
2021/11/10 09:27:51;;;;;;;;;;;;;;;12.34;60.60;102835.96;117529;1184;22002;-64
2021/11/10 09:30:20;;;;;;;;;;;;;;;12.44;60.44;102827.54;117383;1185;21948;-61
2021/11/10 09:32:50;;;;;;;;;;;;;;;12.42;59.93;102823.10;117428;1183;21838;-62
2021/11/10 09:35:18;;;;;;;;;;;;;;;12.47;60.13;102820.55;117445;1184;22916;-62
2021/11/10 09:37:46;;;;;;;;;;;;;;;12.60;60.37;102812.33;117443;1184;22914;-61
2021/11/10 09:40:16;;;;;;;;;;;;;;;12.68;60.25;102809.48;117491;1183;22517;-61
2021/11/10 09:42:44;;;;;;;;;;;;;;;12.74;60.35;102811.01;117532;1183;23449;-62
2021/11/10 09:45:14;;;;;;;;;;;;;;;12.90;60.44;102814.27;117507;1183;23292;-58
2021/11/10 09:47:43;;;;;;;;;;;;;;;13.02;60.23;102811.12;117591;1186;21837;-59
2021/11/10 09:50:13;;;;;;;;;;;;;;;13.03;60.06;102810.42;117568;1186;23615;-60
2021/11/10 09:52:40;;;;;;;;;;;;;;;12.95;59.85;102811.36;117560;1183;22981;-61
2021/11/10 09:55:09;;;;;;;;;;;;;;;12.80;59.65;102814.98;117495;1185;23056;-60
2021/11/10 09:57:39;;;;;;;;;;;;;;;12.81;60.04;102810.41;117525;1184;21911;-60
2021/11/10 10:00:09;;;;;;;;;;;;;;;12.98;60.22;102808.94;117503;1184;22933;-60
2021/11/10 10:02:37;;;;;;;;;;;;;;;13.23;60.35;102809.86;117485;1186;21836;-60
2021/11/10 10:05:06;;;;;;;;;;;;;;;13.30;60.02;102804.15;117494;1183;21825;-61
2021/11/10 10:07:35;;;;;;;;;;;;;;;13.34;59.99;102805.27;117398;1185;21869;-61
2021/11/10 10:10:04;;;;;;;;;;;;;;;13.40;59.94;102806.42;117408;1185;23446;-61
2021/11/10 10:12:32;;;;;;;;;;;;;;;13.44;60.02;102799.27;117445;1182;21842;-61
2021/11/10 10:15:00;;;;;;;;;;;;;;;13.52;60.02;102794.63;117411;1182;21831;-64
2021/11/10 10:17:31;;;;;;;;;;;;;;;13.56;59.90;102795.21;117412;1185;23426;-63
2021/11/10 10:19:59;;;;;;;;;;;;;;;13.63;60.02;102788.96;117445;1183;22969;-64
2021/11/10 10:22:27;;;;;;;;;;;;;;;13.78;60.10;102792.84;117413;1185;23449;-62
2021/11/10 10:24:56;;;;;;;;;;;;;;;14.00;60.36;102785.88;117454;1185;24141;-64
2021/11/10 10:27:32;;;;;;;;;;;;;;;14.21;60.46;102782.08;117536;1182;21842;-63
2021/11/10 10:30:19;;;;;;;;;;;;;;;14.40;60.49;102775.37;117554;1185;23884;-64
2021/11/10 10:32:54;;;;;;;;;;;;;;;14.58;60.24;102767.77;117478;1185;21964;-61
2021/11/10 10:35:30;;;;;;;;;;;;;;;14.72;60.25;102760.67;117528;1183;21850;-62
2021/11/10 10:38:00;;;;;;;;;;;;;;;14.72;59.77;102758.73;117457;1182;21890;-62
2021/11/10 10:40:28;;;;;;;;;;;;;;;14.63;59.55;102754.38;117392;1183;23426;-61
2021/11/10 10:42:56;;;;;;;;;;;;;;;14.57;59.65;102756.10;117493;1185;23445;-58
2021/11/10 10:45:25;;;;;;;;;;;;;;;14.63;59.83;102749.80;117569;1185;23449;-59
2021/11/10 10:48:00;;;;;;;;;;;;;;;14.74;59.97;102746.55;117441;1185;21832;-61
2021/11/10 10:50:38;;;;;;;;;;;;;;;14.93;60.09;102749.53;117415;1188;22001;-58
2021/11/10 10:53:07;;;;;;;;;;;;;;;15.13;60.13;102739.60;117507;1186;21918;-61
2021/11/10 10:55:41;;;;;;;;;;;;;;;15.16;59.74;102739.79;117341;1185;23519;-59
2021/11/10 10:58:11;;;;;;;;;;;;;;;15.14;59.57;102741.19;117456;1182;22957;-61
2021/11/10 11:00:39;;;;;;;;;;;;;;;15.17;59.69;102740.33;117439;1185;21963;-59
2021/11/10 11:03:14;;;;;;;;;;;;;;;15.25;59.94;102740.19;117435;1186;22916;-58
2021/11/10 11:05:42;;;;;;;;;;;;;;;15.39;59.96;102734.08;117453;1185;23426;-61
2021/11/10 11:08:26;;;;;;;;;;;;;;;15.43;59.82;102732.86;117382;1182;23423;-57
2021/11/10 11:10:54;;;;;;;;;;;;;;;15.53;59.85;102729.71;117382;1185;24133;-60
2021/11/10 11:13:46;;;;;;;;;;;;;;;15.55;59.44;102729.20;117487;1185;21838;-58
2021/11/10 11:16:18;;;;;;;;;;;;;;;15.41;59.31;102730.57;117610;1182;21829;-62
2021/11/10 11:19:07;;;;;;;;;;;;;;;15.44;59.60;102736.75;117465;1180;23513;-61
2021/11/10 11:21:45;;;;;;;;;;;;;;;15.56;59.79;102735.23;117541;1185;23422;-58
2021/11/10 11:24:35;;;;;;;;;;;;;;;15.65;59.56;102727.12;117430;1185;24297;-58
2021/11/10 11:27:14;;;;;;;;;;;;;;;15.70;59.65;102721.13;117570;1183;23519;-62
2021/11/10 11:29:42;;;;;;;;;;;;;;;15.79;59.50;102721.86;117388;1182;23453;-61
2021/11/10 11:32:21;;;;;;;;;;;;;;;15.87;59.48;102722.79;117537;1183;23075;-58
2021/11/10 11:34:53;;;;;;;;;;;;;;;15.95;59.52;102724.94;117496;1179;21829;-61
2021/11/10 11:37:22;;;;;;;;;;;;;;;16.09;59.55;102724.64;117555;1182;23455;-64
2021/11/10 11:39:51;;;;;;;;;;;;;;;16.19;59.64;102729.61;117570;1186;21842;-62
2021/11/10 11:42:20;;;;;;;;;;;;;;;16.30;59.67;102728.39;117630;1184;21979;-58
2021/11/10 11:44:48;;;;;;;;;;;;;;;16.44;59.58;102725.55;117496;1183;21841;-62
2021/11/10 11:47:18;;;;;;;;;;;;;;;16.53;59.45;102724.52;117371;1182;23422;-62
2021/11/10 11:49:47;;;;;;;;;;;;;;;16.62;59.32;102725.75;117551;1183;22985;-59
2021/11/10 11:52:15;;;;;;;;;;;;;;;16.63;59.41;102720.77;117592;1186;21836;-62
2021/11/10 11:54:44;;;;;;;;;;;;;;;16.68;59.47;102725.73;117554;1185;21838;-63